createdAt,value
2022-12-14T00:01:49.260Z,14.57
2022-12-14T00:04:18.217Z,14.97
2022-12-14T00:06:46.681Z,20.70
2022-12-14T00:09:14.896Z,16.40
2022-12-14T00:11:43.080Z,14.10
2022-12-14T00:14:11.288Z,18.87
2022-12-14T00:16:40.879Z,17.27
2022-12-14T00:19:09.833Z,20.23
2022-12-14T00:21:38.036Z,14.60
2022-12-14T00:24:06.520Z,15.83
2022-12-14T00:26:34.944Z,17.33
2022-12-14T00:29:03.702Z,17.33
2022-12-14T00:31:32.640Z,15.20
2022-12-14T00:34:02.348Z,14.37
2022-12-14T00:36:31.861Z,13.90
2022-12-14T00:39:00.223Z,14.63
2022-12-14T00:41:28.489Z,14.30
2022-12-14T00:43:56.700Z,14.40
2022-12-14T00:46:25.126Z,14.83
2022-12-14T00:48:53.338Z,15.00
2022-12-14T00:51:22.885Z,15.40
2022-12-14T00:53:51.047Z,14.70
2022-12-14T00:56:19.244Z,13.90
2022-12-14T00:58:51.654Z,14.70
2022-12-14T01:01:19.965Z,15.00
2022-12-14T01:03:48.399Z,14.43
2022-12-14T01:06:17.561Z,15.00
2022-12-14T01:08:47.588Z,14.23
2022-12-14T01:11:16.164Z,15.10
2022-12-14T01:13:44.413Z,14.97
2022-12-14T01:16:13.712Z,15.80
2022-12-14T01:18:43.306Z,13.87
2022-12-14T01:21:12.781Z,15.23
2022-12-14T01:23:41.276Z,15.17
2022-12-14T01:26:10.856Z,14.90
2022-12-14T01:28:39.012Z,15.57
2022-12-14T01:31:08.530Z,14.83
2022-12-14T01:33:36.814Z,16.10
2022-12-14T01:36:05.927Z,14.40
2022-12-14T01:38:34.151Z,16.37
2022-12-14T01:41:02.526Z,14.40
2022-12-14T01:43:45.579Z,15.93
2022-12-14T01:46:20.010Z,14.63
2022-12-14T01:48:49.713Z,17.00
2022-12-14T01:51:17.936Z,14.50
2022-12-14T01:53:46.872Z,17.73
2022-12-14T01:56:15.089Z,15.07
2022-12-14T01:58:43.300Z,14.90
2022-12-14T02:01:12.257Z,14.63
2022-12-14T02:03:43.551Z,15.30
2022-12-14T02:06:14.024Z,15.10
2022-12-14T02:08:44.374Z,14.77
2022-12-14T02:11:12.758Z,14.53
2022-12-14T02:13:41.880Z,15.93
2022-12-14T02:16:10.187Z,20.67
2022-12-14T02:18:38.415Z,15.60
2022-12-14T02:21:15.513Z,14.63
2022-12-14T02:23:55.405Z,16.10
2022-12-14T02:26:41.479Z,16.03
2022-12-14T02:29:24.613Z,17.93
2022-12-14T02:31:58.814Z,14.63
2022-12-14T02:34:31.008Z,18.00
2022-12-14T02:37:01.515Z,19.07
2022-12-14T02:39:32.803Z,29.97
2022-12-14T02:42:04.820Z,19.77
2022-12-14T02:44:35.522Z,17.03
2022-12-14T02:47:08.157Z,16.90
2022-12-14T02:49:43.252Z,13.80
2022-12-14T02:52:24.095Z,17.30
2022-12-14T02:54:57.248Z,21.93
2022-12-14T02:57:28.659Z,15.33
2022-12-14T02:59:58.703Z,23.47
2022-12-14T03:02:29.041Z,19.10
2022-12-14T03:04:57.428Z,17.97
2022-12-14T03:07:28.597Z,16.27
2022-12-14T03:09:56.915Z,15.20
2022-12-14T03:12:25.338Z,15.83
2022-12-14T03:14:54.170Z,16.60
2022-12-14T03:17:24.452Z,17.87
2022-12-14T03:19:55.315Z,17.10
2022-12-14T03:22:25.760Z,15.17
2022-12-14T03:24:55.034Z,17.30
2022-12-14T03:27:26.201Z,15.63
2022-12-14T03:29:56.248Z,16.13
2022-12-14T03:32:26.504Z,14.40
2022-12-14T03:34:58.630Z,17.13
2022-12-14T03:37:29.477Z,16.53
2022-12-14T03:39:57.871Z,16.40
2022-12-14T03:42:27.652Z,16.70
2022-12-14T03:45:01.024Z,16.33
2022-12-14T03:47:41.536Z,17.07
2022-12-14T03:50:14.067Z,15.83
2022-12-14T03:52:44.471Z,15.73
2022-12-14T03:55:21.062Z,16.37
2022-12-14T03:57:55.739Z,17.27
2022-12-14T04:00:25.452Z,17.77
2022-12-14T04:02:56.596Z,15.50
2022-12-14T04:05:32.127Z,16.90
2022-12-14T04:08:05.512Z,15.47
2022-12-14T04:10:57.136Z,16.70
2022-12-14T04:13:49.063Z,15.80
2022-12-14T04:16:37.824Z,15.43
2022-12-14T04:19:08.607Z,18.53
2022-12-14T04:21:42.048Z,18.23
2022-12-14T04:24:29.793Z,16.07
2022-12-14T04:27:00.224Z,15.87
2022-12-14T04:29:48.350Z,16.70
2022-12-14T04:32:19.183Z,18.87
2022-12-14T04:34:50.884Z,17.77
2022-12-14T04:37:22.097Z,15.10
2022-12-14T04:39:51.699Z,16.80
2022-12-14T04:42:21.896Z,16.43
2022-12-14T04:44:52.212Z,17.00
2022-12-14T04:47:21.492Z,15.67
2022-12-14T04:49:51.973Z,15.73
2022-12-14T04:52:23.210Z,16.40
2022-12-14T04:54:54.180Z,14.10
2022-12-14T04:57:25.047Z,16.17
2022-12-14T04:59:53.554Z,15.80
2022-12-14T05:02:24.530Z,17.03
2022-12-14T05:04:59.163Z,16.07
2022-12-14T05:07:36.452Z,16.30
2022-12-14T05:10:08.204Z,18.17
2022-12-14T05:12:39.716Z,16.50
2022-12-14T05:15:09.562Z,15.47
2022-12-14T05:17:38.220Z,17.03
2022-12-14T05:20:07.216Z,18.73
2022-12-14T05:22:38.750Z,16.20
2022-12-14T05:25:07.518Z,17.07
2022-12-14T05:27:35.714Z,15.67
2022-12-14T05:30:04.123Z,15.40
2022-12-14T05:32:32.346Z,16.50
2022-12-14T05:35:00.579Z,16.00
2022-12-14T05:37:28.812Z,17.50
2022-12-14T05:39:58.311Z,18.43
2022-12-14T05:42:26.530Z,18.43
2022-12-14T05:44:55.078Z,15.97
2022-12-14T05:47:23.259Z,16.50
2022-12-14T05:49:51.488Z,16.33
2022-12-14T05:52:19.812Z,15.27
2022-12-14T05:54:47.999Z,16.77
2022-12-14T05:57:17.579Z,17.93
2022-12-14T05:59:45.754Z,18.00
2022-12-14T06:02:14.178Z,16.20
2022-12-14T06:04:42.479Z,15.93
2022-12-14T06:07:12.520Z,18.37
2022-12-14T06:09:40.689Z,19.63
2022-12-14T06:12:08.908Z,17.43
2022-12-14T06:14:38.452Z,17.43
2022-12-14T06:17:06.607Z,18.33
2022-12-14T06:19:34.839Z,16.90
2022-12-14T06:22:02.999Z,16.83
2022-12-14T06:24:31.266Z,18.30
2022-12-14T06:26:59.439Z,16.27
2022-12-14T06:29:27.611Z,16.90
2022-12-14T06:31:57.122Z,16.10
2022-12-14T06:34:28.621Z,18.67
2022-12-14T06:36:57.111Z,19.00
2022-12-14T06:39:25.340Z,17.27
2022-12-14T06:41:53.560Z,17.97
2022-12-14T06:44:21.843Z,18.03
2022-12-14T06:46:50.068Z,15.90
2022-12-14T06:49:19.609Z,19.10
2022-12-14T06:51:48.116Z,27.10
2022-12-14T06:54:17.171Z,29.40
2022-12-14T06:56:46.534Z,49.43
2022-12-14T06:59:14.845Z,39.80
2022-12-14T07:01:43.305Z,37.40
2022-12-14T07:04:11.775Z,29.30
2022-12-14T07:06:42.407Z,36.77
2022-12-14T07:09:12.853Z,26.90
2022-12-14T07:11:41.184Z,18.87
2022-12-14T07:14:09.364Z,21.57
2022-12-14T07:16:37.777Z,22.83
2022-12-14T07:19:05.969Z,20.10
2022-12-14T07:21:34.281Z,19.17
2022-12-14T07:24:03.832Z,16.40
2022-12-14T07:26:32.032Z,19.20
2022-12-14T07:29:01.541Z,20.30
2022-12-14T07:31:30.498Z,18.03
2022-12-14T07:33:59.413Z,19.40
2022-12-14T07:36:28.437Z,18.70
2022-12-14T07:38:57.006Z,18.20
2022-12-14T07:41:30.530Z,17.37
2022-12-14T07:43:59.304Z,18.37
2022-12-14T07:46:28.726Z,18.13
2022-12-14T07:48:57.810Z,19.07
2022-12-14T07:51:27.206Z,19.23
2022-12-14T07:53:55.503Z,18.47
2022-12-14T07:56:24.882Z,19.80
2022-12-14T07:58:55.976Z,19.67
2022-12-14T08:01:25.422Z,20.03
2022-12-14T08:03:54.383Z,19.23
2022-12-14T08:06:23.613Z,18.70
2022-12-14T08:08:52.109Z,17.20
2022-12-14T08:11:22.196Z,17.87
2022-12-14T08:13:53.934Z,18.47
2022-12-14T08:16:23.535Z,18.70
2022-12-14T08:18:52.384Z,21.80
2022-12-14T08:21:22.058Z,18.40
2022-12-14T08:23:50.742Z,19.03
2022-12-14T08:26:19.208Z,18.30
2022-12-14T08:28:48.565Z,19.90
2022-12-14T08:31:17.951Z,21.97
2022-12-14T08:33:47.988Z,22.50
2022-12-14T08:36:17.299Z,16.00
2022-12-14T08:38:45.583Z,18.70
2022-12-14T08:41:14.734Z,18.63
2022-12-14T08:43:43.211Z,19.53
2022-12-14T08:46:12.130Z,20.23
2022-12-14T08:48:40.761Z,18.73
2022-12-14T08:51:10.990Z,18.50
2022-12-14T08:53:39.671Z,18.23
2022-12-14T08:56:08.504Z,18.60
2022-12-14T08:58:36.807Z,17.50
2022-12-14T09:01:06.727Z,19.47
2022-12-14T09:03:35.224Z,19.13
2022-12-14T09:06:04.210Z,19.23
2022-12-14T09:08:34.121Z,20.90
2022-12-14T09:11:02.518Z,19.43
2022-12-14T09:13:30.965Z,20.20
2022-12-14T09:16:00.553Z,19.10
2022-12-14T09:18:29.412Z,20.27
2022-12-14T09:20:58.377Z,19.57
2022-12-14T09:23:28.278Z,18.83
2022-12-14T09:26:01.835Z,19.33
2022-12-14T09:28:30.356Z,18.37
2022-12-14T09:30:58.942Z,17.07
2022-12-14T09:33:27.730Z,23.63
2022-12-14T09:36:00.872Z,19.87
2022-12-14T09:38:29.120Z,18.90
2022-12-14T09:40:58.968Z,17.83
2022-12-14T09:43:37.860Z,18.67
2022-12-14T09:46:13.115Z,19.20
2022-12-14T09:48:43.169Z,20.30
2022-12-14T09:51:15.175Z,19.80
2022-12-14T09:53:43.807Z,20.73
2022-12-14T09:56:14.771Z,20.00
2022-12-14T09:58:48.003Z,18.57
2022-12-14T10:01:25.582Z,30.43
2022-12-14T10:03:59.890Z,47.70
2022-12-14T10:06:32.849Z,44.57
2022-12-14T10:09:05.732Z,35.90
2022-12-14T10:11:37.483Z,22.90
2022-12-14T10:14:12.416Z,18.40
2022-12-14T10:16:47.046Z,27.50
2022-12-14T10:19:23.893Z,24.63
2022-12-14T10:21:56.063Z,27.40
2022-12-14T10:24:26.344Z,18.07
2022-12-14T10:26:55.618Z,19.63
2022-12-14T10:29:31.131Z,20.70
2022-12-14T10:32:05.236Z,19.03
2022-12-14T10:34:34.892Z,18.57
2022-12-14T10:37:07.445Z,21.03
2022-12-14T10:39:41.174Z,19.47
2022-12-14T10:42:17.131Z,17.77
2022-12-14T10:44:59.957Z,18.17
2022-12-14T10:47:39.884Z,18.97
2022-12-14T10:50:18.802Z,19.03
2022-12-14T10:52:48.674Z,21.73
2022-12-14T10:55:18.151Z,18.60
2022-12-14T10:57:46.516Z,20.50
2022-12-14T11:00:22.778Z,21.77
2022-12-14T11:02:54.109Z,19.53
2022-12-14T11:05:36.107Z,18.10
2022-12-14T11:08:06.739Z,19.30
2022-12-14T11:10:36.063Z,19.60
2022-12-14T11:13:05.601Z,21.27
2022-12-14T11:15:38.095Z,28.63
2022-12-14T11:18:07.993Z,20.50
2022-12-14T11:20:36.255Z,20.70
2022-12-14T11:23:09.260Z,19.47
2022-12-14T11:25:39.681Z,23.80
2022-12-14T11:28:18.462Z,21.87
2022-12-14T11:30:55.629Z,24.90
2022-12-14T11:33:24.002Z,21.70
2022-12-14T11:35:52.791Z,20.20
2022-12-14T11:38:21.088Z,21.43
2022-12-14T11:40:49.393Z,23.30
2022-12-14T11:43:23.917Z,20.13
2022-12-14T11:45:52.653Z,18.80
2022-12-14T11:48:23.393Z,19.67
2022-12-14T11:50:52.264Z,20.40
2022-12-14T11:53:22.342Z,19.40
2022-12-14T11:55:52.979Z,19.93
2022-12-14T11:58:22.273Z,18.47
2022-12-14T12:00:51.622Z,17.90
2022-12-14T12:03:24.272Z,19.00
2022-12-14T12:05:54.412Z,18.87
2022-12-14T12:08:25.459Z,18.87
2022-12-14T12:10:54.434Z,20.33
2022-12-14T12:13:25.668Z,22.67
2022-12-14T12:15:55.588Z,20.80
2022-12-14T12:18:27.279Z,23.80
2022-12-14T12:20:59.425Z,30.37
2022-12-14T12:23:31.941Z,22.50
2022-12-14T12:26:01.016Z,23.27
2022-12-14T12:28:31.639Z,22.37
2022-12-14T12:31:06.000Z,23.63
2022-12-14T12:33:42.140Z,22.27
2022-12-14T12:36:11.887Z,22.27
2022-12-14T12:38:50.564Z,22.93
2022-12-14T12:41:27.219Z,23.30
2022-12-14T12:43:59.596Z,20.47
2022-12-14T12:46:30.398Z,21.63
2022-12-14T12:49:02.833Z,28.67
2022-12-14T12:51:35.397Z,32.40
2022-12-14T12:54:07.088Z,25.67
2022-12-14T12:56:38.471Z,33.00
2022-12-14T12:59:07.374Z,29.23
2022-12-14T13:01:37.353Z,27.67
2022-12-14T13:04:10.241Z,25.37
2022-12-14T13:06:42.387Z,27.00
2022-12-14T13:09:16.583Z,22.40
2022-12-14T13:11:45.671Z,24.77
2022-12-14T13:14:19.669Z,25.20
2022-12-14T13:16:48.183Z,24.60
2022-12-14T13:19:49.757Z,29.00
2022-12-14T13:22:14.923Z,26.87
2022-12-14T13:24:44.289Z,27.27
2022-12-14T13:27:30.389Z,26.03
2022-12-14T13:30:06.817Z,26.07
2022-12-14T13:32:42.477Z,25.43
2022-12-14T13:35:19.483Z,28.00
2022-12-14T13:37:59.906Z,24.40
2022-12-14T13:40:46.662Z,27.07
2022-12-14T13:43:22.481Z,23.27
2022-12-14T13:45:51.032Z,24.40
2022-12-14T13:48:21.670Z,24.73
2022-12-14T13:51:01.335Z,24.97
2022-12-14T13:53:33.264Z,25.20
2022-12-14T13:56:02.275Z,30.90
2022-12-14T13:58:34.583Z,28.03
2022-12-14T14:01:04.091Z,28.77
2022-12-14T14:03:52.894Z,26.63
2022-12-14T14:06:22.711Z,25.77
2022-12-14T14:08:52.871Z,22.67
2022-12-14T14:11:40.011Z,24.87
2022-12-14T14:14:13.256Z,31.97
2022-12-14T14:16:44.561Z,22.30
2022-12-14T14:19:19.413Z,24.50
2022-12-14T14:24:56.611Z,30.77
2022-12-14T14:27:26.088Z,30.43
2022-12-14T14:29:54.495Z,32.00
2022-12-14T14:32:34.038Z,49.43
2022-12-14T14:35:03.027Z,27.17
2022-12-14T14:37:33.449Z,35.97
2022-12-14T14:40:33.476Z,29.97
2022-12-14T14:43:19.519Z,24.97
2022-12-14T14:45:50.189Z,24.73
2022-12-14T14:48:24.427Z,23.30
2022-12-14T14:51:02.969Z,24.03
2022-12-14T14:53:32.012Z,24.80
2022-12-14T14:56:06.463Z,23.17
2022-12-14T14:58:36.505Z,23.83
2022-12-14T15:01:24.677Z,24.03
2022-12-14T15:03:55.372Z,21.40
2022-12-14T15:06:25.257Z,23.10
2022-12-14T15:08:57.452Z,22.83
2022-12-14T15:11:27.640Z,20.83
2022-12-14T15:13:58.274Z,26.20
2022-12-14T15:16:30.758Z,24.47
2022-12-14T15:19:13.862Z,21.87
2022-12-14T15:21:42.089Z,22.20
2022-12-14T15:24:14.998Z,22.77
2022-12-14T15:26:44.853Z,23.23
2022-12-14T15:29:17.935Z,22.87
2022-12-14T15:31:46.604Z,26.60
2022-12-14T15:34:17.279Z,27.87
2022-12-14T15:36:45.827Z,27.00
2022-12-14T15:39:30.800Z,25.10
2022-12-14T15:42:10.649Z,22.30
2022-12-14T15:44:43.634Z,21.40
2022-12-14T15:47:32.847Z,22.47
2022-12-14T15:50:16.363Z,21.40
2022-12-14T15:52:45.345Z,18.07
2022-12-14T15:55:22.360Z,18.80
2022-12-14T15:57:52.919Z,17.17
2022-12-14T16:00:21.239Z,16.20
2022-12-14T16:02:49.850Z,44.57
2022-12-14T16:05:20.283Z,110.60
2022-12-14T16:07:51.000Z,112.73
2022-12-14T16:10:23.144Z,119.70
2022-12-14T16:12:55.165Z,53.20
2022-12-14T16:15:24.892Z,36.63
2022-12-14T16:17:59.292Z,32.20
2022-12-14T16:20:31.714Z,25.40
2022-12-14T16:23:01.570Z,32.83
2022-12-14T16:25:30.189Z,15.87
2022-12-14T16:27:59.723Z,15.90
2022-12-14T16:30:29.868Z,14.57
2022-12-14T16:33:15.756Z,12.37
2022-12-14T16:35:44.678Z,12.27
2022-12-14T16:38:14.477Z,14.37
2022-12-14T16:40:44.106Z,12.60
2022-12-14T16:43:26.907Z,13.07
2022-12-14T16:46:10.359Z,13.30
2022-12-14T16:48:40.324Z,11.90
2022-12-14T16:51:24.844Z,13.10
2022-12-14T16:54:06.956Z,12.47
2022-12-14T16:56:39.392Z,13.60
2022-12-14T16:59:24.810Z,13.60
2022-12-14T17:01:53.378Z,14.73
2022-12-14T17:04:22.029Z,20.53
2022-12-14T17:06:51.672Z,20.10
2022-12-14T17:09:20.755Z,22.53
2022-12-14T17:11:49.203Z,20.00
2022-12-14T17:14:19.757Z,19.57
2022-12-14T17:16:49.883Z,18.60
2022-12-14T17:19:21.284Z,18.33
2022-12-14T17:21:51.157Z,18.57
2022-12-14T17:24:20.700Z,17.77
2022-12-14T17:26:49.491Z,19.67
2022-12-14T17:29:23.425Z,18.10
2022-12-14T17:31:54.807Z,16.63
2022-12-14T17:34:23.331Z,20.00
2022-12-14T17:36:51.514Z,19.83
2022-12-14T17:39:20.371Z,19.10
2022-12-14T17:41:49.264Z,27.63
2022-12-14T17:44:18.363Z,28.60
2022-12-14T17:46:48.775Z,27.30
2022-12-14T17:49:33.768Z,36.80
2022-12-14T17:52:02.341Z,31.63
2022-12-14T17:54:33.096Z,24.87
2022-12-14T17:57:01.550Z,25.67
2022-12-14T17:59:29.764Z,26.70
2022-12-14T18:01:59.442Z,25.17
2022-12-14T18:04:27.693Z,22.77
2022-12-14T18:06:55.958Z,19.70
2022-12-14T18:09:24.196Z,20.97
2022-12-14T18:12:21.639Z,21.53
2022-12-14T18:14:40.675Z,19.20
2022-12-14T18:17:11.817Z,20.30
2022-12-14T18:19:40.383Z,18.70
2022-12-14T18:22:09.321Z,19.27
2022-12-14T18:24:37.522Z,20.30
2022-12-14T18:27:08.001Z,20.43
2022-12-14T18:29:36.206Z,20.70
2022-12-14T18:32:04.395Z,20.33
2022-12-14T18:34:34.087Z,21.13
2022-12-14T18:37:02.292Z,19.57
2022-12-14T18:39:30.535Z,21.37
2022-12-14T18:41:58.727Z,28.43
2022-12-14T18:44:26.922Z,22.90
2022-12-14T18:46:55.168Z,19.13
2022-12-14T18:49:23.442Z,19.70
2022-12-14T18:51:53.239Z,18.80
2022-12-14T18:54:21.441Z,18.07
2022-12-14T18:56:49.784Z,16.63
2022-12-14T18:59:18.012Z,16.43
2022-12-14T19:01:46.261Z,17.03
2022-12-14T19:04:14.536Z,13.23
2022-12-14T19:06:44.645Z,14.90
2022-12-14T19:09:15.504Z,13.10
2022-12-14T19:11:43.839Z,12.83
2022-12-14T19:14:12.143Z,14.30
2022-12-14T19:16:40.444Z,13.20
2022-12-14T19:19:08.676Z,13.97
2022-12-14T19:21:36.823Z,14.50
2022-12-14T19:24:08.396Z,14.40
2022-12-14T19:26:39.277Z,14.80
2022-12-14T19:29:07.469Z,16.00
2022-12-14T19:31:35.767Z,17.83
2022-12-14T19:34:03.956Z,19.20
2022-12-14T19:36:32.127Z,20.33
2022-12-14T19:39:00.927Z,17.53
2022-12-14T19:41:29.113Z,18.70
2022-12-14T19:43:58.939Z,18.93
2022-12-14T19:46:27.147Z,19.10
2022-12-14T19:48:57.577Z,18.03
2022-12-14T19:51:25.806Z,19.90
2022-12-14T19:53:55.948Z,18.50
2022-12-14T19:56:24.264Z,17.53
2022-12-14T19:58:52.528Z,16.13
2022-12-14T20:01:22.206Z,16.83
2022-12-14T20:03:50.622Z,18.43
2022-12-14T20:06:18.942Z,17.57
2022-12-14T20:08:49.628Z,18.97
2022-12-14T20:11:18.097Z,19.33
2022-12-14T20:13:46.715Z,18.90
2022-12-14T20:16:17.422Z,20.67
2022-12-14T20:18:47.224Z,17.13
2022-12-14T20:21:21.654Z,17.93
2022-12-14T20:23:50.568Z,21.40
2022-12-14T20:26:19.908Z,28.93
2022-12-14T20:28:49.317Z,22.50
2022-12-14T20:31:17.569Z,23.70
2022-12-14T20:33:47.688Z,15.67
2022-12-14T20:36:16.405Z,15.90
2022-12-14T20:38:44.637Z,15.47
2022-12-14T20:41:17.621Z,13.93
2022-12-14T20:43:46.563Z,14.10
2022-12-14T20:46:25.218Z,13.37
2022-12-14T20:48:55.015Z,14.63
2022-12-14T20:51:23.205Z,14.97
2022-12-14T20:53:51.424Z,14.70
2022-12-14T20:56:19.636Z,14.83
2022-12-14T20:58:48.680Z,13.43
2022-12-14T21:01:17.836Z,16.63
2022-12-14T21:03:47.314Z,15.80
2022-12-14T21:06:17.512Z,15.30
2022-12-14T21:09:09.600Z,16.07
2022-12-14T21:11:56.532Z,12.90
2022-12-14T21:14:25.685Z,14.70
2022-12-14T21:16:53.948Z,15.00
2022-12-14T21:19:22.284Z,15.27
2022-12-14T21:21:54.076Z,14.67
2022-12-14T21:25:00.427Z,15.40
2022-12-14T21:27:12.020Z,14.53
2022-12-14T21:29:40.183Z,13.50
2022-12-14T21:32:08.479Z,14.90
2022-12-14T21:34:36.947Z,14.30
2022-12-14T21:37:06.506Z,13.63
2022-12-14T21:39:34.716Z,12.63
2022-12-14T21:42:12.765Z,13.50
2022-12-14T21:44:41.522Z,13.83
2022-12-14T21:47:10.585Z,14.03
2022-12-14T21:49:39.672Z,13.47
2022-12-14T21:52:09.779Z,12.30
2022-12-14T21:54:39.961Z,12.23
2022-12-14T21:57:26.037Z,12.60
2022-12-14T21:59:55.801Z,11.10
2022-12-14T22:02:25.395Z,12.10
2022-12-14T22:04:56.274Z,11.33
2022-12-14T22:07:27.399Z,12.13
2022-12-14T22:09:55.543Z,11.10
2022-12-14T22:12:23.741Z,12.90
2022-12-14T22:14:52.046Z,11.67
2022-12-14T22:17:20.310Z,12.57
2022-12-14T22:19:48.943Z,11.43
2022-12-14T22:22:18.039Z,10.07
2022-12-14T22:24:49.501Z,10.17
2022-12-14T22:27:17.786Z,9.87
2022-12-14T22:29:45.987Z,11.20
2022-12-14T22:32:14.548Z,8.80
2022-12-14T22:34:42.944Z,9.17
2022-12-14T22:37:11.411Z,9.57
2022-12-14T22:39:39.963Z,8.97
2022-12-14T22:42:10.437Z,10.43
2022-12-14T22:44:38.973Z,10.10
2022-12-14T22:47:07.175Z,9.40
2022-12-14T22:49:35.360Z,10.33
2022-12-14T22:52:03.537Z,9.60
2022-12-14T22:54:31.736Z,10.67
2022-12-14T22:57:02.320Z,10.40
2022-12-14T22:59:34.739Z,9.97
2022-12-14T23:02:03.077Z,9.70
2022-12-14T23:04:31.495Z,9.80
2022-12-14T23:06:59.714Z,10.77
2022-12-14T23:09:45.406Z,9.93
2022-12-14T23:12:32.408Z,8.87
2022-12-14T23:15:19.714Z,9.70
2022-12-14T23:18:05.662Z,9.50
2022-12-14T23:20:51.723Z,8.47
2022-12-14T23:23:37.880Z,9.03
2022-12-14T23:26:24.200Z,8.60
2022-12-14T23:29:10.383Z,7.73
2022-12-14T23:31:57.793Z,8.40
2022-12-14T23:34:43.752Z,9.23
2022-12-14T23:37:29.726Z,7.97
2022-12-14T23:40:16.104Z,9.77
2022-12-14T23:43:02.066Z,9.33
2022-12-14T23:45:48.143Z,8.40
2022-12-14T23:48:35.259Z,8.93
2022-12-14T23:51:21.346Z,9.77
2022-12-14T23:54:07.270Z,9.80
2022-12-14T23:56:53.657Z,11.60
2022-12-14T23:59:40.156Z,10.40
